Time;durP1;ratioP1;P1;durP2;ratioP2;P2;SDS_P1;SDS_P2;PMS_P1;PMS_P2;Temp;Humidity;BMP_temperature;BMP_pressure;BME280_temperature;BME280_humidity;BME280_pressure;Samples;Min_cycle;Max_cycle;Signal;HPM_P1;HPM_P2
2023/10/02 00:00:40;;;;;;;1.00;1.00;;;;;;;20.68;100.00;100583.31;5067382;28;20612;-77
2023/10/02 00:03:09;;;;;;;1.02;1.00;;;;;;;20.44;100.00;100541.59;5054254;28;20580;-77
2023/10/02 00:16:42;;;;;;;1.45;1.40;;;;;;;20.71;100.00;100581.47;5041356;28;20892;-77
2023/10/02 00:19:18;;;;;;;1.58;1.45;;;;;;;20.74;100.00;100585.81;5054575;28;20215;-77
2023/10/02 00:21:46;;;;;;;5.75;1.30;;;;;;;20.57;100.00;100559.78;5054226;28;20206;-77
2023/10/02 00:24:14;;;;;;;1.15;1.05;;;;;;;20.79;100.00;100589.25;5054411;28;20196;-75
2023/10/02 00:26:42;;;;;;;0.70;0.70;;;;;;;20.71;100.00;100583.25;5054205;28;20206;-77
2023/10/02 00:29:10;;;;;;;1.80;1.10;;;;;;;20.69;100.00;100595.59;5054125;28;20598;-77
2023/10/02 00:31:38;;;;;;;1.75;1.33;;;;;;;20.59;100.00;100591.34;5068142;28;20203;-76
2023/10/02 00:34:06;;;;;;;1.25;1.08;;;;;;;20.54;100.00;100561.59;5058702;28;20199;-76
2023/10/02 00:36:33;;;;;;;0.88;0.88;;;;;;;20.68;100.00;100605.25;5053802;28;20227;-76
2023/10/02 00:39:25;;;;;;;2.17;1.52;;;;;;;20.68;100.00;100601.75;5053961;28;20291;-76
2023/10/02 00:47:42;;;;;;;1.63;1.52;;;;;;;20.74;99.95;100601.63;5019520;28;20811;-75
2023/10/02 00:50:11;;;;;;;2.05;1.25;;;;;;;20.73;99.93;100600.75;5011978;28;20201;-76
2023/10/02 00:52:41;;;;;;;2.70;2.47;;;;;;;20.73;100.00;100610.44;5011509;28;20232;-76
2023/10/02 00:55:11;;;;;;;1.95;1.35;;;;;;;20.71;100.00;100606.97;5011086;28;20312;-76
2023/10/02 00:57:41;;;;;;;1.60;1.50;;;;;;;20.76;99.31;100610.41;5011621;28;20204;-76
2023/10/02 01:00:17;;;;;;;1.30;1.20;;;;;;;20.79;99.21;100605.06;5011327;28;20228;-76
2023/10/02 01:02:46;;;;;;;1.00;0.95;;;;;;;20.87;98.39;100615.47;5011249;28;20771;-76
2023/10/02 01:05:16;;;;;;;1.10;1.10;;;;;;;20.84;97.77;100611.09;5011442;28;20200;-76
2023/10/02 01:07:44;;;;;;;3.00;1.70;;;;;;;20.87;97.75;100618.94;5011540;28;20208;-76
2023/10/02 01:10:18;;;;;;;1.30;1.20;;;;;;;20.91;97.63;100625.91;5011117;28;20296;-77
2023/10/02 01:12:49;;;;;;;1.27;1.00;;;;;;;20.91;97.66;100628.53;4991467;28;20213;-76
2023/10/02 01:15:21;;;;;;;2.05;1.52;;;;;;;20.87;97.46;100621.59;4991717;28;20657;-77
2023/10/02 01:17:49;;;;;;;1.05;1.05;;;;;;;20.83;97.36;100609.38;5004417;28;20196;-76
2023/10/02 01:20:32;;;;;;;1.10;1.10;;;;;;;20.79;96.91;100618.25;5011537;28;20208;-77
2023/10/02 01:23:11;;;;;;;1.13;1.13;;;;;;;20.90;95.85;100618.94;5052713;28;20222;-76
2023/10/02 01:25:42;;;;;;;1.50;1.38;;;;;;;20.86;96.53;100619.88;5052590;28;20210;-77
2023/10/02 01:28:11;;;;;;;1.10;1.05;;;;;;;20.96;96.04;100642.53;5052356;28;20212;-77
2023/10/02 01:30:38;;;;;;;1.38;1.30;;;;;;;20.97;95.97;100638.13;5070177;28;20761;-76
2023/10/02 01:33:11;;;;;;;1.00;1.00;;;;;;;20.99;95.31;100642.47;5057629;28;20210;-75
2023/10/02 01:35:40;;;;;;;5.90;1.23;;;;;;;21.08;94.53;100638.81;5019716;28;20295;-76
2023/10/02 01:38:12;;;;;;;0.80;0.80;;;;;;;21.10;94.40;100634.34;5052585;28;20199;-76
2023/10/02 01:40:43;;;;;;;1.38;1.27;;;;;;;21.11;94.95;100633.50;5072112;28;20689;-77
2023/10/02 01:43:14;;;;;;;2.17;1.13;;;;;;;20.89;95.31;100638.25;5057123;28;20203;-77
2023/10/02 01:45:44;;;;;;;2.28;1.33;;;;;;;20.88;96.12;100647.06;5052706;28;20596;-76
2023/10/02 01:48:14;;;;;;;4.80;1.80;;;;;;;20.64;96.22;100623.78;5052884;28;20199;-77
2023/10/02 01:50:43;;;;;;;2.97;1.58;;;;;;;20.73;96.81;100645.56;5072117;28;20199;-77
2023/10/02 01:53:28;;;;;;;2.42;1.58;;;;;;;20.41;97.35;100612.75;5057967;28;20676;-75
2023/10/02 01:56:10;;;;;;;3.42;1.50;;;;;;;20.63;97.44;100627.31;5022466;28;20227;-77
2023/10/02 01:58:39;;;;;;;2.28;1.48;;;;;;;20.62;96.98;100641.38;5055879;28;20758;-77
2023/10/02 02:01:09;;;;;;;2.20;1.52;;;;;;;20.70;96.56;100644.75;5040372;28;20270;-76
2023/10/02 02:03:37;;;;;;;2.47;1.20;;;;;;;20.77;96.01;100649.00;5051735;28;20227;-76
2023/10/02 02:06:08;;;;;;;3.47;1.60;;;;;;;20.76;95.56;100657.84;5051505;28;20300;-76
2023/10/02 02:08:36;;;;;;;2.38;1.42;;;;;;;20.93;95.07;100657.53;5054928;28;20290;-76
2023/10/02 02:13:52;;;;;;;2.38;1.63;;;;;;;20.92;93.26;100638.19;5058413;28;20790;-77
2023/10/02 02:16:31;;;;;;;3.78;1.80;;;;;;;21.04;97.90;100667.00;5051970;28;20255;-76
2023/10/02 02:18:58;;;;;;;1.75;1.23;;;;;;;21.00;100.00;100662.66;5051875;28;20205;-76
2023/10/02 02:21:26;;;;;;;1.50;1.05;;;;;;;20.94;100.00;100662.75;5051910;28;20203;-76
2023/10/02 02:24:06;;;;;;;2.40;1.33;;;;;;;20.98;100.00;100663.56;5051866;28;20676;-77
2023/10/02 02:26:36;;;;;;;2.70;1.58;;;;;;;21.06;100.00;100673.09;5051748;28;20225;-77
2023/10/02 02:29:03;;;;;;;3.03;1.95;;;;;;;20.93;100.00;100671.59;5053024;28;20199;-76
2023/10/02 02:31:31;;;;;;;2.20;1.45;;;;;;;21.06;100.00;100675.72;5051737;28;20202;-76
2023/10/02 02:34:00;;;;;;;2.65;2.13;;;;;;;21.15;100.00;100665.03;5051649;28;20204;-77
2023/10/02 02:36:28;;;;;;;1.85;1.23;;;;;;;21.20;99.96;100680.78;5051343;28;20238;-77
2023/10/02 02:39:17;;;;;;;2.53;1.45;;;;;;;21.19;99.84;100661.44;5051152;28;20643;-76
2023/10/02 02:41:47;;;;;;;2.65;1.50;;;;;;;21.29;100.00;100677.13;5051010;28;20211;-77
2023/10/02 02:44:39;;;;;;;1.98;1.23;;;;;;;21.17;99.93;100667.66;5051442;28;20195;-77
2023/10/02 02:47:08;;;;;;;2.63;1.63;;;;;;;21.27;99.41;100685.91;5051052;28;20207;-76
2023/10/02 02:49:48;;;;;;;1.38;1.23;;;;;;;21.35;99.26;100684.91;5065001;28;20203;-75
2023/10/02 02:52:16;;;;;;;2.13;1.50;;;;;;;21.43;98.63;100690.91;5064094;28;20195;-76
2023/10/02 02:54:45;;;;;;;2.33;1.58;;;;;;;21.40;98.54;100690.97;5051155;28;20226;-76
2023/10/02 02:57:13;;;;;;;3.97;1.77;;;;;;;21.49;98.70;100685.50;5050811;28;20227;-75
2023/10/02 02:59:40;;;;;;;3.28;1.45;;;;;;;21.44;98.15;100690.84;5050885;28;20259;-76
2023/10/02 03:02:08;;;;;;;3.15;1.60;;;;;;;21.47;97.77;100692.59;5031846;28;20198;-76
2023/10/02 03:04:39;;;;;;;3.53;1.52;;;;;;;21.60;98.25;100683.50;5050739;28;20208;-75
2023/10/02 03:07:29;;;;;;;2.65;1.50;;;;;;;21.49;100.00;100689.00;5032372;28;20214;-75
2023/10/02 03:09:57;;;;;;;3.38;2.05;;;;;;;21.32;100.00;100699.03;5031045;28;20306;-76
2023/10/02 03:12:25;;;;;;;3.65;1.85;;;;;;;21.43;100.00;100693.53;5018766;28;20589;-76
2023/10/02 03:14:54;;;;;;;1.48;1.13;;;;;;;21.18;95.86;100675.56;5015924;28;20199;-74
2023/10/02 03:17:28;;;;;;;2.03;1.45;;;;;;;21.21;99.79;100669.34;5053225;28;20219;-75
2023/10/02 03:19:55;;;;;;;3.42;2.38;;;;;;;21.22;96.48;100694.84;5035191;28;20201;-76
2023/10/02 03:22:24;;;;;;;3.10;2.00;;;;;;;21.25;96.09;100698.28;5040912;28;20202;-76
2023/10/02 03:24:51;;;;;;;3.38;1.55;;;;;;;21.25;94.99;100703.56;5055219;28;20210;-75
2023/10/02 03:27:21;;;;;;;1.73;1.38;;;;;;;21.23;94.80;100700.06;5055754;28;20195;-76
2023/10/02 03:29:50;;;;;;;1.85;1.20;;;;;;;21.17;84.37;100705.47;5055264;28;20661;-76
2023/10/02 03:32:16;;;;;;;4.35;2.10;;;;;;;21.13;89.66;100706.41;5019570;28;20200;-77
2023/10/02 03:34:48;;;;;;;2.25;1.30;;;;;;;21.28;91.50;100705.25;5038858;28;20207;-76
2023/10/02 03:37:21;;;;;;;1.58;1.08;;;;;;;21.20;91.15;100715.06;5040575;28;20219;-76
2023/10/02 03:40:00;;;;;;;2.97;1.42;;;;;;;21.19;89.79;100711.56;5074616;28;20199;-76
2023/10/02 03:42:30;;;;;;;3.30;1.95;;;;;;;20.94;86.63;100680.38;5050358;28;20662;-76
2023/10/02 03:45:00;;;;;;;1.52;1.10;;;;;;;21.20;83.52;100705.41;5054828;28;20207;-76
2023/10/02 03:47:30;;;;;;;2.47;1.30;;;;;;;21.11;80.86;100710.84;5055339;28;20206;-76
2023/10/02 03:50:01;;;;;;;2.00;1.27;;;;;;;20.93;79.05;100705.88;5020351;28;20199;-77
2023/10/02 03:52:30;;;;;;;6.50;1.60;;;;;;;20.81;79.45;100703.44;5054279;28;20196;-74
2023/10/02 03:54:57;;;;;;;2.75;1.27;;;;;;;20.46;77.42;100690.81;5054778;28;20260;-77
2023/10/02 03:57:49;;;;;;;3.08;1.60;;;;;;;20.58;78.70;100708.22;5054790;28;20236;-77
2023/10/02 04:00:22;;;;;;;2.38;1.10;;;;;;;20.42;79.22;100710.19;5057862;28;20227;-76
2023/10/02 04:02:50;;;;;;;3.20;1.20;;;;;;;20.31;79.54;100711.25;5066538;28;20225;-78
2023/10/02 04:05:32;;;;;;;2.20;1.17;;;;;;;20.17;80.53;100707.03;5054399;28;20192;-74
2023/10/02 04:08:17;;;;;;;1.58;1.00;;;;;;;19.95;76.41;100695.03;5054389;28;20590;-76
2023/10/02 04:10:57;;;;;;;3.92;1.88;;;;;;;20.04;77.44;100710.72;5054145;28;20203;-76
2023/10/02 04:13:25;;;;;;;2.08;1.48;;;;;;;19.93;75.15;100717.03;5058041;28;20210;-76
2023/10/02 04:16:27;;;;;;;1.65;1.42;;;;;;;19.80;75.25;100693.47;5055215;28;20226;-76
2023/10/02 04:18:46;;;;;;;4.13;1.63;;;;;;;19.62;76.50;100700.75;5059884;28;20278;-76
2023/10/02 04:21:13;;;;;;;1.08;0.88;;;;;;;19.79;77.08;100722.47;5054064;28;20203;-75
2023/10/02 04:23:42;;;;;;;2.47;1.30;;;;;;;19.71;79.37;100727.81;5053598;28;20206;-76
2023/10/02 04:26:19;;;;;;;2.72;1.30;;;;;;;19.75;77.17;100733.91;5053829;28;20748;-76
2023/10/02 04:28:54;;;;;;;1.42;1.08;;;;;;;19.60;77.78;100736.72;5051393;28;20222;-76
2023/10/02 04:31:23;;;;;;;1.48;1.35;;;;;;;19.59;77.96;100743.72;5052444;28;20687;-75
2023/10/02 04:34:15;;;;;;;1.92;1.15;;;;;;;19.57;78.67;100756.06;5052909;28;20286;-75
2023/10/02 04:36:41;;;;;;;4.03;1.45;;;;;;;19.51;79.44;100750.81;5051419;28;20219;-75
2023/10/02 04:39:51;;;;;;;2.13;1.45;;;;;;;19.54;80.49;100755.22;5053573;28;20586;-76
2023/10/02 04:42:14;;;;;;;1.50;1.10;;;;;;;19.57;79.91;100765.69;5052907;28;20661;-76
2023/10/02 04:44:44;;;;;;;4.18;1.48;;;;;;;19.71;79.01;100762.03;5053735;28;20203;-75
2023/10/02 04:47:17;;;;;;;1.70;1.05;;;;;;;19.75;78.64;100776.91;5035106;28;20215;-79
2023/10/02 04:52:53;;;;;;;3.55;1.30;;;;;;;19.72;77.54;100779.56;5053415;28;20270;-77
2023/10/02 04:55:24;;;;;;;5.35;1.65;;;;;;;19.60;77.74;100782.31;5024907;28;20265;-77
2023/10/02 04:57:54;;;;;;;3.25;1.30;;;;;;;19.46;76.75;100788.59;5054325;28;20222;-76
2023/10/02 05:00:32;;;;;;;1.45;1.02;;;;;;;19.08;78.48;100797.69;5070931;28;20284;-78
2023/10/02 05:03:24;;;;;;;3.97;1.50;;;;;;;18.89;78.92;100772.44;5068394;28;20191;-80
2023/10/02 05:05:53;;;;;;;2.90;1.58;;;;;;;18.97;80.04;100799.53;5064930;28;20205;-76
2023/10/02 05:08:21;;;;;;;1.33;0.90;;;;;;;18.79;80.34;100773.41;5062822;28;20206;-78
2023/10/02 05:10:50;;;;;;;2.97;1.67;;;;;;;18.72;81.43;100769.94;5050600;28;20207;-78
2023/10/02 05:16:07;;;;;;;3.45;1.48;;;;;;;18.70;83.13;100762.94;5053229;28;20234;-73
2023/10/02 05:18:34;;;;;;;1.80;1.00;;;;;;;19.00;82.50;100809.16;5062229;28;20571;-79
2023/10/02 05:21:02;;;;;;;4.72;1.52;;;;;;;18.96;86.30;100804.78;5053018;28;20283;-76
2023/10/02 05:23:30;;;;;;;1.50;0.90;;;;;;;18.97;83.18;100811.81;5033686;28;20200;-74
2023/10/02 05:26:02;;;;;;;2.80;1.15;;;;;;;19.09;82.82;100814.31;5051983;28;20214;-74
2023/10/02 05:28:42;;;;;;;2.05;1.25;;;;;;;18.69;83.80;100792.72;5055053;28;20208;-76
2023/10/02 05:31:12;;;;;;;6.82;2.28;;;;;;;18.95;84.87;100800.41;5052071;28;20213;-75
2023/10/02 05:33:40;;;;;;;2.42;1.13;;;;;;;19.07;84.38;100831.88;5051703;28;20229;-75
2023/10/02 05:36:08;;;;;;;1.80;1.15;;;;;;;19.15;84.16;100833.56;5051845;28;20259;-75
2023/10/02 05:38:37;;;;;;;2.47;1.20;;;;;;;19.08;84.73;100826.63;5051690;28;20265;-75
2023/10/02 05:41:12;;;;;;;2.75;1.45;;;;;;;19.02;85.33;100829.28;5048692;28;20591;-75
2023/10/02 05:43:55;;;;;;;1.63;0.88;;;;;;;18.87;87.20;100824.13;5048739;28;20210;-75
2023/10/02 05:46:23;;;;;;;2.33;1.17;;;;;;;18.94;87.41;100831.06;5041931;28;20705;-75
2023/10/02 05:49:00;;;;;;;2.22;1.15;;;;;;;19.07;87.50;100830.13;5049068;28;20298;-74
2023/10/02 05:51:45;;;;;;;1.88;1.20;;;;;;;18.81;86.77;100800.50;5048093;28;20203;-74
2023/10/02 05:54:12;;;;;;;1.85;0.95;;;;;;;18.93;86.77;100834.59;5047994;28;20203;-75
2023/10/02 05:56:40;;;;;;;1.45;1.10;;;;;;;18.83;87.75;100817.16;5041179;28;20228;-75
2023/10/02 05:59:07;;;;;;;1.73;1.10;;;;;;;18.78;86.74;100804.03;5055121;28;20265;-71
2023/10/02 06:01:35;;;;;;;3.20;1.67;;;;;;;19.23;86.66;100844.00;5051074;28;20203;-74
2023/10/02 06:04:05;;;;;;;8.77;2.47;;;;;;;19.23;85.26;100854.50;5051374;28;20202;-75
2023/10/02 06:06:35;;;;;;;1.63;0.98;;;;;;;19.30;85.57;100843.94;5051315;28;20257;-75
2023/10/02 06:09:03;;;;;;;1.73;0.95;;;;;;;19.17;86.53;100838.78;5050274;28;20210;-77
2023/10/02 06:11:33;;;;;;;2.58;1.20;;;;;;;19.09;84.20;100815.19;5047995;28;20285;-77
2023/10/02 06:14:10;;;;;;;6.03;1.73;;;;;;;19.68;84.54;100853.28;5051436;28;20203;-77
2023/10/02 06:16:39;;;;;;;3.03;1.20;;;;;;;19.96;83.33;100865.28;5001543;28;20219;-76
2023/10/02 06:19:13;;;;;;;3.08;1.23;;;;;;;20.01;80.49;100862.59;5043952;28;20208;-76
2023/10/02 06:21:45;;;;;;;2.72;1.55;;;;;;;19.77;79.98;100876.88;5050643;28;20322;-75
2023/10/02 06:24:16;;;;;;;2.42;1.33;;;;;;;19.82;79.36;100877.72;5051263;28;20230;-74
2023/10/02 06:26:57;;;;;;;2.80;1.13;;;;;;;19.70;79.66;100883.06;5051206;28;20205;-75
2023/10/02 06:29:24;;;;;;;2.83;1.20;;;;;;;19.52;77.36;100878.84;5051003;28;20207;-75
2023/10/02 06:31:58;;;;;;;6.68;1.77;;;;;;;19.64;76.40;100877.88;5050779;28;20199;-75
2023/10/02 06:34:36;;;;;;;2.95;1.15;;;;;;;19.45;76.94;100881.53;5050715;28;20699;-76
2023/10/02 06:37:07;;;;;;;1.67;1.10;;;;;;;19.58;76.94;100891.09;5036992;28;20219;-74
2023/10/02 06:39:36;;;;;;;3.20;1.20;;;;;;;19.43;75.93;100872.81;5051057;28;20250;-76
2023/10/02 06:42:05;;;;;;;7.53;2.20;;;;;;;19.29;76.39;100871.16;5050736;28;20659;-76
2023/10/02 06:44:41;;;;;;;3.63;1.25;;;;;;;19.66;75.47;100897.16;5051110;28;20235;-74
2023/10/02 06:47:11;;;;;;;3.80;1.48;;;;;;;19.59;74.64;100884.94;5050799;28;20210;-73
2023/10/02 06:49:44;;;;;;;3.78;1.75;;;;;;;19.98;73.76;100902.09;5050884;28;20211;-74
2023/10/02 06:52:15;;;;;;;2.50;1.17;;;;;;;19.77;74.47;100903.19;5048845;28;20288;-74
2023/10/02 06:54:46;;;;;;;2.70;1.13;;;;;;;19.75;74.44;100912.88;5048148;28;20211;-74
2023/10/02 06:57:14;;;;;;;3.78;1.60;;;;;;;19.73;73.29;100907.59;5046050;28;20297;-75
2023/10/02 06:59:51;;;;;;;2.58;1.13;;;;;;;19.72;74.71;100905.00;5043821;28;20227;-76
2023/10/02 07:02:20;;;;;;;3.28;1.20;;;;;;;19.60;73.81;100876.16;5048420;28;20200;-75
2023/10/02 07:04:49;;;;;;;3.05;1.30;;;;;;;19.69;72.95;100866.41;5050572;28;20301;-74
2023/10/02 07:07:21;;;;;;;2.22;1.45;;;;;;;19.88;74.21;100903.97;5050591;28;20210;-75
2023/10/02 07:09:49;;;;;;;1.55;1.10;;;;;;;19.98;73.74;100915.25;5050384;28;20203;-74
2023/10/02 07:12:16;;;;;;;3.22;1.15;;;;;;;20.11;72.84;100917.78;5061905;28;20235;-74
2023/10/02 07:14:45;;;;;;;2.80;1.20;;;;;;;19.80;70.38;100879.47;5050408;28;20210;-75
2023/10/02 07:17:18;;;;;;;3.30;1.27;;;;;;;19.86;69.74;100923.28;5050266;28;20223;-74
2023/10/02 07:19:49;;;;;;;2.67;1.27;;;;;;;19.91;68.49;100892.50;5017087;28;20206;-76
2023/10/02 07:22:23;;;;;;;3.25;1.23;;;;;;;20.31;67.36;100929.88;5048542;28;20277;-74
2023/10/02 07:24:54;;;;;;;16.20;1.75;;;;;;;19.80;68.66;100929.47;5049812;28;20191;-75
2023/10/02 07:27:27;;;;;;;1.58;1.00;;;;;;;19.80;68.36;100932.09;5046962;28;20648;-74
2023/10/02 07:29:56;;;;;;;5.60;1.58;;;;;;;19.67;69.29;100930.47;5026199;28;20214;-75
2023/10/02 07:32:24;;;;;;;2.63;1.20;;;;;;;19.88;67.53;100932.91;5050342;28;20203;-72
2023/10/02 07:34:53;;;;;;;3.63;1.90;;;;;;;20.18;67.25;100934.38;5049874;28;20204;-74
2023/10/02 07:37:24;;;;;;;2.45;1.10;;;;;;;20.65;64.68;100936.50;5050117;28;20316;-74
2023/10/02 07:39:56;;;;;;;6.43;1.75;;;;;;;20.36;64.02;100941.25;5050767;28;20200;-75
2023/10/02 07:42:31;;;;;;;2.40;1.42;;;;;;;20.60;62.96;100935.69;5038059;28;20226;-74
2023/10/02 07:45:11;;;;;;;3.38;1.20;;;;;;;20.66;61.88;100933.84;5049994;28;20663;-75
2023/10/02 07:47:55;;;;;;;3.58;1.35;;;;;;;20.40;62.23;100935.06;5039092;28;20566;-74
2023/10/02 07:50:33;;;;;;;1.15;1.00;;;;;;;20.40;62.98;100940.31;5049709;28;20226;-74
2023/10/02 07:53:04;;;;;;;1.50;1.00;;;;;;;20.53;62.73;100941.91;5031152;28;20265;-74
2023/10/02 07:55:32;;;;;;;2.25;1.10;;;;;;;20.47;62.72;100952.53;5049635;28;20699;-75
2023/10/02 07:58:00;;;;;;;4.93;1.58;;;;;;;20.23;63.94;100949.22;5048293;28;20223;-77
2023/10/02 08:00:38;;;;;;;2.72;1.08;;;;;;;20.13;64.42;100950.22;5049739;28;20246;-73
2023/10/02 08:03:29;;;;;;;3.33;1.48;;;;;;;20.22;64.93;100959.81;5050037;28;20592;-74
2023/10/02 08:05:56;;;;;;;16.20;2.20;;;;;;;20.19;64.62;100958.06;5053495;28;20231;-74
2023/10/02 08:08:33;;;;;;;3.40;1.02;;;;;;;20.31;64.35;100959.72;5053759;28;20196;-74
2023/10/02 08:11:10;;;;;;;7.35;1.38;;;;;;;20.34;64.85;100971.97;5051902;28;20199;-72
2023/10/02 08:13:39;;;;;;;6.15;2.13;;;;;;;20.29;63.86;100958.88;5051002;28;20686;-74
2023/10/02 08:16:12;;;;;;;4.55;1.65;;;;;;;20.30;64.74;100963.25;5018471;28;20195;-74
2023/10/02 08:21:23;;;;;;;7.38;1.52;;;;;;;20.41;63.31;100963.13;5050210;28;21813;-75
2023/10/02 08:23:54;;;;;;;10.10;3.40;;;;;;;20.61;63.59;100976.97;5053356;28;20584;-75
2023/10/02 08:26:21;;;;;;;1.83;1.00;;;;;;;20.50;63.35;100957.78;5053525;28;20286;-75
2023/10/02 08:28:51;;;;;;;7.30;1.95;;;;;;;20.81;62.71;100976.72;5051921;28;20211;-76
2023/10/02 08:31:19;;;;;;;3.78;1.15;;;;;;;21.06;62.01;100981.66;5052849;28;20192;-73
2023/10/02 08:33:46;;;;;;;4.28;1.23;;;;;;;21.11;60.94;100981.63;5052990;28;20210;-73
2023/10/02 08:36:13;;;;;;;4.50;1.25;;;;;;;21.49;59.90;100975.78;5011795;28;20650;-74
2023/10/02 08:38:41;;;;;;;4.68;1.50;;;;;;;21.65;59.49;100979.94;5053335;28;20607;-76
2023/10/02 08:41:09;;;;;;;5.68;1.35;;;;;;;21.45;58.89;100971.44;5053127;28;20199;-76
2023/10/02 08:43:41;;;;;;;3.50;1.23;;;;;;;21.86;58.72;100976.09;5032107;28;21433;-75
2023/10/02 08:46:18;;;;;;;4.22;1.15;;;;;;;21.67;57.34;100970.22;5051922;28;20648;-76
2023/10/02 08:48:47;;;;;;;5.38;1.33;;;;;;;21.05;59.34;100944.75;5051604;28;20778;-75
2023/10/02 08:51:28;;;;;;;4.22;1.25;;;;;;;21.84;57.89;100960.25;5052536;28;20211;-74
2023/10/02 08:53:57;;;;;;;5.93;1.52;;;;;;;21.50;58.32;100970.50;5052065;28;20637;-75
2023/10/02 08:56:37;;;;;;;3.47;1.13;;;;;;;21.45;59.25;100968.81;5052998;28;20212;-74
2023/10/02 08:59:17;;;;;;;2.58;1.02;;;;;;;21.18;60.05;100965.72;5069685;28;20316;-76
2023/10/02 09:01:48;;;;;;;4.70;1.60;;;;;;;20.91;60.70;100971.31;5052197;28;20206;-77
2023/10/02 09:04:28;;;;;;;4.28;1.40;;;;;;;21.20;60.82;100966.53;5039080;28;20231;-76
2023/10/02 09:06:58;;;;;;;3.80;1.20;;;;;;;21.04;61.17;100972.03;5066118;28;20198;-76
2023/10/02 09:09:36;;;;;;;2.80;1.27;;;;;;;21.36;60.52;100963.69;5039442;28;20642;-76
2023/10/02 09:12:14;;;;;;;9.45;1.98;;;;;;;21.29;60.34;100967.31;5066251;28;20198;-77
2023/10/02 09:14:42;;;;;;;7.65;1.73;;;;;;;21.21;60.92;100970.06;5063509;28;20290;-76
2023/10/02 09:17:19;;;;;;;7.68;2.35;;;;;;;21.04;61.22;100978.19;5056478;28;20280;-77
2023/10/02 09:20:00;;;;;;;7.28;1.83;;;;;;;20.97;61.83;100971.25;5052371;28;20200;-77
2023/10/02 09:22:28;;;;;;;2.70;1.20;;;;;;;21.16;60.94;100977.16;5052255;28;20203;-77
2023/10/02 09:24:57;;;;;;;15.05;5.88;;;;;;;21.53;59.53;100978.38;5053318;28;20258;-76
2023/10/02 09:27:28;;;;;;;5.38;1.30;;;;;;;21.43;59.60;100975.91;5054380;28;20219;-78
2023/10/02 09:32:49;;;;;;;4.05;1.13;;;;;;;21.69;58.14;100965.78;5054411;28;20689;-78
2023/10/02 09:35:32;;;;;;;4.72;1.35;;;;;;;21.90;58.32;100976.03;5057385;28;20245;-77
2023/10/02 09:38:04;;;;;;;10.77;2.00;;;;;;;22.11;57.51;100978.31;5037952;28;20230;-76
2023/10/02 09:43:14;;;;;;;5.20;1.83;;;;;;;22.43;56.12;100984.78;5045522;28;20201;-75
2023/10/02 09:45:46;;;;;;;3.60;1.35;;;;;;;22.54;55.30;100988.06;5039603;28;20726;-77
2023/10/02 09:51:06;;;;;;;6.07;1.40;;;;;;;22.14;56.56;100978.25;5057627;28;20199;-74
2023/10/02 09:53:38;;;;;;;6.95;1.70;;;;;;;22.39;55.67;100975.16;5016384;28;20187;-76
2023/10/02 09:56:13;;;;;;;4.22;1.17;;;;;;;22.12;56.60;100984.44;5017921;28;20227;-75
2023/10/02 09:58:52;;;;;;;5.65;1.88;;;;;;;22.24;56.57;100978.94;5051573;28;20258;-77
2023/10/02 10:01:35;;;;;;;3.55;1.00;;;;;;;22.08;55.87;100967.78;5051422;28;20235;-73
2023/10/02 10:04:30;;;;;;;3.90;1.10;;;;;;;21.98;56.29;100976.75;5051682;28;20581;-75
2023/10/02 10:07:06;;;;;;;4.03;1.20;;;;;;;22.40;55.64;100971.63;5051578;28;20286;-76
2023/10/02 10:09:50;;;;;;;3.75;1.13;;;;;;;22.14;56.49;100956.25;5051555;28;20207;-77
2023/10/02 10:12:31;;;;;;;5.93;1.40;;;;;;;22.20;56.22;100967.56;5051325;28;20569;-76
2023/10/02 10:15:25;;;;;;;4.47;1.23;;;;;;;22.20;56.65;100970.22;5051386;28;20206;-76
2023/10/02 10:17:59;;;;;;;4.82;1.50;;;;;;;22.26;56.34;100966.56;5051604;28;20281;-76
2023/10/02 10:20:27;;;;;;;6.05;1.55;;;;;;;22.06;57.65;100964.31;5051292;28;20199;-76
2023/10/02 10:22:56;;;;;;;5.15;1.30;;;;;;;22.02;56.89;100964.38;5050992;28;20600;-75
2023/10/02 10:25:45;;;;;;;3.40;1.08;;;;;;;22.29;56.62;100957.72;5051098;28;20249;-76
2023/10/02 10:28:27;;;;;;;5.22;1.42;;;;;;;22.13;56.48;100958.00;5051050;28;20243;-77
2023/10/02 10:31:08;;;;;;;8.70;1.42;;;;;;;22.06;57.19;100919.41;5051143;28;20211;-77
2023/10/02 10:33:40;;;;;;;3.90;1.20;;;;;;;22.30;57.29;100946.22;5050721;28;20262;-77
2023/10/02 10:36:34;;;;;;;6.10;1.30;;;;;;;22.82;56.69;100957.56;5051002;28;20210;-76
2023/10/02 10:39:30;;;;;;;5.45;1.27;;;;;;;22.22;57.52;100930.56;5050882;28;20235;-76
2023/10/02 10:41:57;;;;;;;4.50;1.20;;;;;;;22.09;58.84;100932.53;5050532;28;20679;-77
2023/10/02 10:44:32;;;;;;;5.93;1.33;;;;;;;22.48;58.23;100956.47;5051061;28;20195;-76
2023/10/02 10:47:03;;;;;;;2.95;1.20;;;;;;;22.37;57.28;100926.72;5051044;28;20203;-76
2023/10/02 10:50:11;;;;;;;2.13;1.10;;;;;;;22.88;56.74;100940.69;5051163;28;20219;-75
2023/10/02 10:52:39;;;;;;;4.65;1.40;;;;;;;22.63;55.96;100946.47;4989380;28;20197;-77
2023/10/02 10:55:34;;;;;;;3.35;1.48;;;;;;;22.93;54.75;100923.81;4989219;28;20721;-75
2023/10/02 10:58:02;;;;;;;8.38;1.88;;;;;;;22.77;54.74;100951.47;4989379;28;20229;-76
2023/10/02 11:00:31;;;;;;;7.78;2.42;;;;;;;22.95;55.34;100948.44;4989212;28;20229;-76
2023/10/02 11:03:08;;;;;;;4.60;1.20;;;;;;;22.75;56.09;100945.38;4989149;28;20197;-76
2023/10/02 11:05:35;;;;;;;6.82;1.42;;;;;;;22.26;56.56;100928.72;4989251;28;20582;-76
2023/10/02 11:08:23;;;;;;;9.52;2.15;;;;;;;22.43;57.41;100942.47;4989493;28;20745;-78
2023/10/02 11:11:00;;;;;;;9.18;2.42;;;;;;;22.31;57.31;100943.56;4989382;28;20291;-76
2023/10/02 11:13:28;;;;;;;8.60;2.00;;;;;;;22.43;58.08;100938.06;4989513;28;20197;-77
2023/10/02 11:16:07;;;;;;;4.75;1.08;;;;;;;22.67;55.87;100942.88;4989671;28;20209;-76
2023/10/02 11:18:39;;;;;;;4.28;1.15;;;;;;;23.10;55.44;100931.38;4989614;28;20229;-78
2023/10/02 11:21:21;;;;;;;6.68;1.45;;;;;;;22.66;55.82;100913.78;4989638;28;20687;-77
2023/10/02 11:23:48;;;;;;;5.93;1.73;;;;;;;22.46;57.07;100930.06;4989421;28;20226;-77
2023/10/02 11:26:22;;;;;;;4.93;1.23;;;;;;;22.42;56.66;100909.00;4989546;28;20205;-77
2023/10/02 11:28:49;;;;;;;5.13;1.30;;;;;;;22.30;56.93;100920.69;5002947;28;20614;-78
2023/10/02 11:31:29;;;;;;;1.95;1.08;;;;;;;22.21;57.11;100924.41;5050636;28;20206;-78
2023/10/02 11:34:04;;;;;;;4.82;1.65;;;;;;;22.62;55.89;100890.94;5050222;28;20214;-76
2023/10/02 11:36:35;;;;;;;3.03;1.27;;;;;;;23.22;54.27;100894.88;5050187;28;20195;-75
2023/10/02 11:39:08;;;;;;;4.90;1.42;;;;;;;22.85;53.59;100919.59;5053490;28;20219;-75
2023/10/02 11:41:36;;;;;;;3.78;1.10;;;;;;;22.88;54.02;100919.50;5054001;28;20199;-76
2023/10/02 11:44:04;;;;;;;6.05;1.33;;;;;;;23.07;53.80;100916.44;5019233;28;20210;-75
2023/10/02 11:46:30;;;;;;;16.90;1.95;;;;;;;23.14;53.19;100914.53;5053890;28;20195;-75
2023/10/02 11:48:57;;;;;;;2.72;1.17;;;;;;;22.75;53.52;100920.69;5054404;28;20238;-74
2023/10/02 11:51:28;;;;;;;3.63;1.50;;;;;;;22.57;53.30;100890.19;5053853;28;20285;-74
2023/10/02 11:53:59;;;;;;;8.02;1.83;;;;;;;22.83;52.89;100914.31;5054198;28;20702;-76
2023/10/02 11:56:26;;;;;;;5.35;1.33;;;;;;;22.75;53.23;100921.56;5053907;28;20283;-74
2023/10/02 11:58:53;;;;;;;5.03;1.13;;;;;;;22.95;53.22;100907.91;5019202;28;20253;-77
2023/10/02 12:01:21;;;;;;;3.95;1.20;;;;;;;23.04;51.95;100905.94;5053735;28;20227;-76
2023/10/02 12:03:49;;;;;;;5.35;1.65;;;;;;;23.04;51.01;100915.63;5053746;28;20286;-76
2023/10/02 12:06:16;;;;;;;5.85;1.38;;;;;;;22.83;51.92;100910.84;5053883;28;20206;-76
2023/10/02 12:08:45;;;;;;;6.65;1.33;;;;;;;23.09;51.02;100913.75;5053836;28;20203;-76
2023/10/02 12:11:13;;;;;;;5.18;1.20;;;;;;;22.76;51.37;100877.50;5053979;28;20268;-76
2023/10/02 12:13:40;;;;;;;4.90;1.15;;;;;;;23.07;50.73;100911.16;5053557;28;20230;-77
2023/10/02 12:16:11;;;;;;;7.60;1.52;;;;;;;22.69;52.05;100908.47;5053557;28;20203;-74
2023/10/02 12:18:37;;;;;;;4.80;1.35;;;;;;;22.47;52.19;100891.31;5053454;28;20324;-75
2023/10/02 12:21:09;;;;;;;6.70;1.75;;;;;;;22.75;50.86;100903.06;5053633;28;20261;-75
2023/10/02 12:23:39;;;;;;;5.88;1.30;;;;;;;22.50;51.09;100902.69;5053187;28;20210;-76
2023/10/02 12:26:10;;;;;;;4.30;1.05;;;;;;;22.81;50.29;100902.91;5053429;28;20198;-76